Time;durP1;ratioP1;P1;durP2;ratioP2;P2;SDS_P1;SDS_P2;PMS_P1;PMS_P2;Temp;Humidity;BMP_temperature;BMP_pressure;BME280_temperature;BME280_humidity;BME280_pressure;Samples;Min_cycle;Max_cycle;Signal;HPM_P1;HPM_P2
2023/02/02 00:01:53;;;;;;;5.50;1.20;;;;;;;1.86;100.00;99543.02;104247;1269;59594;-57
2023/02/02 00:04:42;;;;;;;3.40;0.90;;;;;;;1.85;100.00;99531.00;104340;1268;71830;-58
2023/02/02 00:07:10;;;;;;;3.80;1.00;;;;;;;1.85;100.00;99527.30;104153;1269;68552;-58
2023/02/02 00:09:38;;;;;;;7.10;1.30;;;;;;;1.84;100.00;99514.56;103836;1264;165413;-58
2023/02/02 00:12:06;;;;;;;2.00;1.00;;;;;;;1.85;100.00;99509.08;104325;1263;60117;-58
2023/02/02 00:14:34;;;;;;;4.10;1.10;;;;;;;1.86;100.00;99503.75;104170;1266;61008;-57
2023/02/02 00:17:03;;;;;;;4.10;1.70;;;;;;;1.87;100.00;99501.27;105550;1264;71694;-57
2023/02/02 00:19:32;;;;;;;9.90;1.20;;;;;;;1.87;100.00;99501.39;104711;1267;66113;-58
2023/02/02 00:22:00;;;;;;;7.00;1.10;;;;;;;1.87;100.00;99495.04;104391;1263;72330;-59
2023/02/02 00:24:28;;;;;;;5.50;1.30;;;;;;;1.88;100.00;99495.20;104365;1268;59850;-57
2023/02/02 00:26:58;;;;;;;8.20;2.30;;;;;;;1.88;100.00;99490.23;104756;1267;60031;-57
2023/02/02 00:29:28;;;;;;;6.20;1.10;;;;;;;1.89;100.00;99488.27;104900;1263;72347;-58
2023/02/02 00:31:56;;;;;;;2.90;1.20;;;;;;;1.88;100.00;99484.57;104938;1263;68419;-57
2023/02/02 00:34:24;;;;;;;5.10;1.10;;;;;;;1.87;100.00;99484.97;104467;1267;70736;-57
2023/02/02 00:36:52;;;;;;;5.00;1.00;;;;;;;1.86;100.00;99483.23;104595;1269;59839;-57
2023/02/02 00:39:24;;;;;;;6.80;1.50;;;;;;;1.84;100.00;99475.83;104274;1263;59517;-57
2023/02/02 00:41:52;;;;;;;8.20;1.10;;;;;;;1.83;100.00;99475.66;104378;1263;71492;-58
2023/02/02 00:47:08;;;;;;;7.30;1.50;;;;;;;1.82;100.00;99479.92;104387;1264;72055;-57
2023/02/02 00:49:36;;;;;;;6.70;1.30;;;;;;;1.83;100.00;99470.52;104324;1269;61363;-57
2023/02/02 00:52:05;;;;;;;4.60;1.20;;;;;;;1.82;100.00;99465.75;105147;1263;59710;-56
2023/02/02 00:54:34;;;;;;;9.00;1.50;;;;;;;1.80;100.00;99463.14;104360;1263;73095;-57
2023/02/02 00:57:02;;;;;;;5.10;1.80;;;;;;;1.77;100.00;99460.03;104383;1268;66465;-56
2023/02/02 00:59:31;;;;;;;6.70;1.60;;;;;;;1.76;100.00;99455.27;104425;1264;71380;-57
2023/02/02 01:02:00;;;;;;;12.00;1.70;;;;;;;1.75;100.00;99452.45;104678;1269;60807;-57
2023/02/02 01:04:29;;;;;;;9.30;1.50;;;;;;;1.77;100.00;99446.94;104626;1263;60959;-57
2023/02/02 01:06:58;;;;;;;4.70;1.20;;;;;;;1.78;100.00;99451.70;104167;1268;73312;-57
2023/02/02 01:09:26;;;;;;;7.50;1.60;;;;;;;1.78;100.00;99449.02;104538;1268;67444;-57
2023/02/02 01:11:54;;;;;;;4.10;0.90;;;;;;;1.79;100.00;99452.36;104578;1264;73887;-55
2023/02/02 01:14:22;;;;;;;5.30;1.40;;;;;;;1.80;100.00;99453.77;103763;1267;59752;-58
2023/02/02 01:16:50;;;;;;;10.60;1.60;;;;;;;1.80;100.00;99455.17;104612;1263;59738;-57
2023/02/02 01:19:18;;;;;;;7.70;1.10;;;;;;;1.82;100.00;99452.86;103814;1264;72941;-57
2023/02/02 01:21:46;;;;;;;3.70;1.00;;;;;;;1.82;100.00;99446.83;104018;1263;68267;-57
2023/02/02 01:24:15;;;;;;;8.10;1.90;;;;;;;1.82;100.00;99447.55;104206;1264;72867;-57
2023/02/02 01:26:43;;;;;;;6.70;1.40;;;;;;;1.82;100.00;99452.33;104698;1264;60172;-57
2023/02/02 01:29:11;;;;;;;6.00;1.30;;;;;;;1.81;100.00;99450.58;105437;1253;60326;-57
2023/02/02 01:31:41;;;;;;;5.40;1.30;;;;;;;1.81;100.00;99444.73;104747;1254;71832;-56
2023/02/02 01:34:10;;;;;;;6.00;1.40;;;;;;;1.81;100.00;99449.15;105713;1254;66154;-56
2023/02/02 01:36:40;;;;;;;4.00;0.90;;;;;;;1.80;100.00;99444.91;104913;1254;73718;-57
2023/02/02 01:39:08;;;;;;;4.90;1.50;;;;;;;1.80;100.00;99443.85;105339;1256;60343;-57
2023/02/02 01:41:39;;;;;;;6.60;1.30;;;;;;;1.80;100.00;99444.92;109186;1253;61476;-57
2023/02/02 01:44:45;;;;;;;7.10;1.90;;;;;;;1.80;100.00;99446.33;105734;1254;72932;-59
2023/02/02 01:47:13;;;;;;;5.90;1.80;;;;;;;1.79;100.00;99461.92;105128;1254;66570;-57
2023/02/02 01:49:41;;;;;;;8.70;2.00;;;;;;;1.77;100.00;99445.34;105260;1254;71277;-57
2023/02/02 01:52:10;;;;;;;6.80;1.60;;;;;;;1.75;100.00;99443.60;105341;1257;61368;-58
2023/02/02 01:54:44;;;;;;;6.10;1.20;;;;;;;1.72;100.00;99442.24;105960;1254;59674;-58
2023/02/02 01:57:21;;;;;;;11.00;2.00;;;;;;;1.69;100.00;99445.30;105913;1254;72076;-57
2023/02/02 01:59:49;;;;;;;5.50;1.30;;;;;;;1.67;100.00;99444.98;105078;1257;65308;-57
2023/02/02 02:03:07;;;;;;;6.40;1.70;;;;;;;1.64;100.00;99466.60;101461;1292;600539;-57
2023/02/02 02:05:41;;;;;;;8.20;1.60;;;;;;;1.64;100.00;99534.34;104202;1272;60989;-57
2023/02/02 02:08:18;;;;;;;3.50;1.00;;;;;;;1.64;100.00;99516.66;104918;1266;59366;-57
2023/02/02 02:10:46;;;;;;;7.20;1.70;;;;;;;1.63;100.00;99509.42;105562;1269;69972;-58
2023/02/02 02:13:15;;;;;;;5.90;1.40;;;;;;;1.63;100.00;99494.38;104183;1273;67148;-57
2023/02/02 02:16:18;;;;;;;7.10;1.50;;;;;;;1.63;100.00;99492.97;104436;1264;114479;-57
2023/02/02 02:19:13;;;;;;;5.80;1.40;;;;;;;1.64;100.00;99502.86;104361;1263;60285;-57
2023/02/02 02:28:34;;;;;;;3.20;1.10;;;;;;;1.62;100.00;99503.08;104392;1264;68378;-57
2023/02/02 02:31:18;;;;;;;5.60;1.30;;;;;;;1.60;100.00;99491.63;104402;1260;72070;-57
2023/02/02 02:33:53;;;;;;;4.90;1.30;;;;;;;1.60;100.00;99489.17;104849;1260;60190;-57
2023/02/02 02:36:30;;;;;;;3.70;1.40;;;;;;;1.59;100.00;99482.63;104283;1261;60535;-57
2023/02/02 02:39:11;;;;;;;6.10;1.70;;;;;;;1.59;100.00;99486.70;105155;1255;73192;-54
2023/02/02 02:41:42;;;;;;;4.20;1.30;;;;;;;1.59;100.00;99476.79;108762;1254;66942;-55
2023/02/02 02:44:12;;;;;;;6.10;1.30;;;;;;;1.59;100.00;99477.85;107110;1258;72293;-54
2023/02/02 02:46:41;;;;;;;2.20;0.90;;;;;;;1.58;100.00;99475.56;105416;1254;61961;-56
2023/02/02 02:49:10;;;;;;;7.10;1.80;;;;;;;1.58;100.00;99475.56;105292;1253;61797;-57
2023/02/02 02:51:39;;;;;;;6.10;1.40;;;;;;;1.57;100.00;99473.09;105077;1254;72506;-55
2023/02/02 02:54:08;;;;;;;5.50;1.30;;;;;;;1.58;100.00;99476.63;105475;1254;70395;-58
2023/02/02 02:56:56;;;;;;;5.10;1.40;;;;;;;1.59;100.00;99473.42;105335;1252;72336;-54
2023/02/02 02:59:28;;;;;;;6.80;1.70;;;;;;;1.60;100.00;99482.61;104963;1254;60745;-55
2023/02/02 03:02:03;;;;;;;4.10;1.50;;;;;;;1.62;100.00;99477.95;107646;1251;59637;-53
2023/02/02 03:04:34;;;;;;;;;;;;;;;1.64;100.00;99477.92;105390;1254;73651;-55
2023/02/02 03:07:09;;;;;;;9.50;2.10;;;;;;;1.67;100.00;99476.66;104930;1256;66152;-57
2023/02/02 03:09:39;;;;;;;6.40;1.50;;;;;;;1.67;100.00;99474.17;106270;1251;71350;-56
2023/02/02 03:12:12;;;;;;;6.80;1.30;;;;;;;1.67;100.00;99475.59;105075;1253;60123;-58
2023/02/02 03:14:41;;;;;;;5.80;1.90;;;;;;;1.68;100.00;99470.80;105004;1252;60338;-54
2023/02/02 03:17:09;;;;;;;3.10;1.30;;;;;;;1.69;100.00;99471.49;109132;1253;72765;-58
2023/02/02 03:19:37;;;;;;;4.70;1.60;;;;;;;1.69;100.00;99473.23;105957;1253;67577;-55
2023/02/02 03:22:05;;;;;;;3.50;1.10;;;;;;;1.69;100.00;99473.98;104874;1253;73437;-57
2023/02/02 03:24:33;;;;;;;6.40;1.70;;;;;;;1.68;100.00;99475.91;105077;1254;60868;-58
2023/02/02 03:27:01;;;;;;;5.70;1.70;;;;;;;1.69;100.00;99473.96;104908;1251;59647;-58
2023/02/02 03:29:30;;;;;;;4.20;1.40;;;;;;;1.70;100.00;99473.06;104719;1257;73972;-58
2023/02/02 03:31:58;;;;;;;4.50;1.20;;;;;;;1.71;100.00;99475.14;106234;1254;67463;-57
2023/02/02 03:34:26;;;;;;;4.10;1.20;;;;;;;1.73;100.00;99477.42;105205;1253;72891;-56
2023/02/02 03:36:54;;;;;;;4.30;1.40;;;;;;;1.75;100.00;99476.70;105170;1257;60304;-56
2023/02/02 03:39:22;;;;;;;7.00;1.40;;;;;;;1.77;100.00;99478.96;105066;1254;59640;-57
2023/02/02 03:41:50;;;;;;;5.10;1.20;;;;;;;1.79;100.00;99480.86;105161;1256;72026;-55
2023/02/02 03:44:18;;;;;;;5.00;1.50;;;;;;;1.81;100.00;99482.06;105593;1256;66481;-59
2023/02/02 03:46:46;;;;;;;5.10;1.20;;;;;;;1.81;100.00;99480.98;105050;1255;72859;-56
2023/02/02 03:49:14;;;;;;;7.10;1.20;;;;;;;1.81;100.00;99482.94;105141;1250;60170;-56
2023/02/02 03:51:43;;;;;;;5.00;1.30;;;;;;;1.80;100.00;99484.73;104901;1253;59730;-56
2023/02/02 03:54:11;;;;;;;5.80;1.30;;;;;;;1.79;100.00;99485.09;104975;1256;72211;-58
2023/02/02 03:56:39;;;;;;;3.80;1.50;;;;;;;1.78;100.00;99485.66;109272;1253;66711;-58
2023/02/02 03:59:07;;;;;;;5.40;1.60;;;;;;;1.78;100.00;99486.38;108605;1250;71638;-56
2023/02/02 04:01:35;;;;;;;5.40;1.30;;;;;;;1.79;100.00;99485.11;104975;1254;61398;-59
2023/02/02 04:04:03;;;;;;;4.20;1.40;;;;;;;1.78;100.00;99483.02;105209;1254;61412;-58
2023/02/02 04:06:33;;;;;;;6.70;1.50;;;;;;;1.76;100.00;99482.67;105123;1252;74240;-57
2023/02/02 04:09:02;;;;;;;7.50;1.30;;;;;;;1.74;100.00;99479.88;105119;1257;67752;-56
2023/02/02 04:11:31;;;;;;;3.80;1.30;;;;;;;1.73;100.00;99484.85;105864;1256;72648;-59
2023/02/02 04:14:01;;;;;;;2.90;1.00;;;;;;;1.72;100.00;99486.10;105236;1257;59577;-55
2023/02/02 04:16:33;;;;;;;5.90;1.70;;;;;;;1.71;100.00;99481.86;105478;1254;59868;-56
2023/02/02 04:19:02;;;;;;;3.90;1.30;;;;;;;1.70;100.00;99483.48;109023;1253;74233;-56
2023/02/02 04:21:29;;;;;;;9.70;1.60;;;;;;;1.69;100.00;99484.76;107503;1253;67170;-57
2023/02/02 04:23:57;;;;;;;7.80;1.20;;;;;;;1.68;100.00;99486.90;105140;1256;71545;-55
2023/02/02 04:26:26;;;;;;;5.70;1.20;;;;;;;1.67;100.00;99479.13;109016;1253;59989;-56
2023/02/02 04:28:53;;;;;;;7.80;1.20;;;;;;;1.64;100.00;99482.89;106017;1254;59989;-56
2023/02/02 04:31:21;;;;;;;9.20;1.80;;;;;;;1.60;100.00;99481.20;105866;1253;72601;-58
2023/02/02 04:33:49;;;;;;;4.70;1.10;;;;;;;1.57;100.00;99479.64;106188;1254;66447;-55
2023/02/02 04:36:18;;;;;;;4.70;1.40;;;;;;;1.56;100.00;99483.55;105052;1254;73654;-56
2023/02/02 04:38:50;;;;;;;4.20;1.40;;;;;;;1.55;100.00;99486.04;105120;1254;60371;-54
2023/02/02 04:41:18;;;;;;;8.40;1.60;;;;;;;1.56;100.00;99491.15;105094;1257;61110;-54
2023/02/02 04:43:46;;;;;;;5.90;1.20;;;;;;;1.57;100.00;99489.55;105593;1250;73183;-57
2023/02/02 04:46:14;;;;;;;6.20;1.30;;;;;;;1.58;100.00;99489.70;105248;1253;67759;-57
2023/02/02 04:48:42;;;;;;;4.90;1.30;;;;;;;1.58;100.00;99491.65;108097;1253;73323;-57
2023/02/02 04:51:12;;;;;;;5.10;1.20;;;;;;;1.58;100.00;99491.48;105241;1253;59683;-57
2023/02/02 04:53:40;;;;;;;4.30;1.10;;;;;;;1.55;100.00;99489.91;105269;1253;60185;-56
2023/02/02 04:56:14;;;;;;;8.60;1.40;;;;;;;1.55;100.00;99493.27;105478;1252;72773;-57
2023/02/02 04:58:42;;;;;;;7.10;1.20;;;;;;;1.53;100.00;99492.26;105123;1253;66103;-57
2023/02/02 05:01:15;;;;;;;7.80;1.30;;;;;;;1.52;100.00;99491.77;105215;1252;71707;-56
2023/02/02 05:03:43;;;;;;;5.60;1.50;;;;;;;1.53;100.00;99493.52;105621;1254;62360;-56
2023/02/02 05:06:12;;;;;;;9.40;1.80;;;;;;;1.53;100.00;99492.80;105101;1253;60586;-57
2023/02/02 05:08:42;;;;;;;3.20;1.20;;;;;;;1.54;100.00;99497.19;105107;1253;71049;-57
2023/02/02 05:11:12;;;;;;;3.00;1.00;;;;;;;1.53;100.00;99494.73;105163;1253;65893;-57
2023/02/02 05:13:48;;;;;;;6.00;1.30;;;;;;;1.53;100.00;99493.87;105215;1254;70806;-57
2023/02/02 05:16:16;;;;;;;5.30;1.30;;;;;;;1.53;100.00;99503.58;105393;1251;61451;-56
2023/02/02 05:18:52;;;;;;;4.40;1.20;;;;;;;1.51;100.00;99497.61;105915;1254;59919;-55
2023/02/02 05:21:20;;;;;;;8.10;1.70;;;;;;;1.47;100.00;99503.85;107431;1250;71416;-57
2023/02/02 05:23:48;;;;;;;4.80;1.20;;;;;;;1.45;100.00;99495.20;105162;1254;65616;-56
2023/02/02 05:26:19;;;;;;;5.90;1.00;;;;;;;1.45;100.00;99499.63;105036;1251;71416;-57
2023/02/02 05:28:47;;;;;;;4.60;1.20;;;;;;;1.46;100.00;99499.26;106753;1254;61411;-56
2023/02/02 05:31:15;;;;;;;5.30;1.40;;;;;;;1.46;100.00;99497.85;109053;1251;60635;-57
2023/02/02 05:33:43;;;;;;;6.60;1.70;;;;;;;1.44;100.00;99499.11;108847;1254;71392;-57
2023/02/02 05:36:12;;;;;;;9.70;2.20;;;;;;;1.43;100.00;99502.86;105154;1256;64836;-56
2023/02/02 05:38:40;;;;;;;6.40;2.10;;;;;;;1.44;100.00;99507.98;105007;1254;75261;-56
2023/02/02 05:41:08;;;;;;;4.70;2.10;;;;;;;1.44;100.00;99506.02;105130;1257;60578;-56
2023/02/02 05:43:36;;;;;;;3.70;1.70;;;;;;;1.44;100.00;99507.27;105007;1254;59586;-56
2023/02/02 05:46:04;;;;;;;8.60;1.70;;;;;;;1.43;100.00;99507.45;105744;1253;72963;-56
2023/02/02 05:48:32;;;;;;;5.40;1.50;;;;;;;1.43;100.00;99512.06;104925;1254;66379;-56
2023/02/02 05:51:13;;;;;;;5.80;1.40;;;;;;;1.42;100.00;99514.89;105029;1254;72395;-56
2023/02/02 05:53:43;;;;;;;5.80;2.30;;;;;;;1.43;100.00;99525.15;104861;1257;60957;-56
2023/02/02 05:56:12;;;;;;;5.30;1.50;;;;;;;1.44;100.00;99525.48;105180;1253;61291;-56
2023/02/02 05:58:41;;;;;;;5.30;1.40;;;;;;;1.45;100.00;99522.63;105628;1253;73469;-56
2023/02/02 06:01:09;;;;;;;6.20;1.90;;;;;;;1.46;100.00;99526.48;105157;1254;67351;-56
2023/02/02 06:03:37;;;;;;;6.70;2.10;;;;;;;1.46;100.00;99527.71;104995;1254;71838;-55
2023/02/02 06:06:05;;;;;;;4.60;2.20;;;;;;;1.49;100.00;99523.98;106111;1255;60615;-55
2023/02/02 06:08:34;;;;;;;9.10;3.30;;;;;;;1.51;100.00;99526.25;105304;1254;59642;-57
2023/02/02 06:11:13;;;;;;;5.80;1.90;;;;;;;1.51;100.00;99528.38;105140;1252;72361;-54
2023/02/02 06:13:42;;;;;;;8.10;3.40;;;;;;;1.52;100.00;99535.96;105427;1256;66891;-56
2023/02/02 06:16:12;;;;;;;14.20;3.90;;;;;;;1.53;100.00;99539.30;105242;1254;73862;-55
2023/02/02 06:18:41;;;;;;;14.90;5.10;;;;;;;1.54;100.00;99538.39;109129;1253;61727;-57
2023/02/02 06:21:09;;;;;;;21.10;6.20;;;;;;;1.54;100.00;99544.58;106699;1254;60598;-55
2023/02/02 06:23:37;;;;;;;16.70;5.10;;;;;;;1.56;100.00;99548.98;104967;1251;73766;-55
2023/02/02 06:26:07;;;;;;;15.60;5.10;;;;;;;1.57;100.00;99553.04;106819;1255;68280;-51
2023/02/02 06:28:35;;;;;;;19.90;5.70;;;;;;;1.58;100.00;99558.68;105225;1257;72776;-54
2023/02/02 06:31:06;;;;;;;19.50;4.90;;;;;;;1.60;100.00;99557.08;105547;1253;60811;-55
2023/02/02 06:33:36;;;;;;;16.20;6.10;;;;;;;1.62;100.00;99562.15;109146;1253;58303;-57
2023/02/02 06:36:06;;;;;;;15.20;4.10;;;;;;;1.63;100.00;99560.02;107283;1256;71661;-53
2023/02/02 06:38:34;;;;;;;9.30;3.90;;;;;;;1.67;100.00;99561.20;105693;1256;68469;-53
2023/02/02 06:41:02;;;;;;;8.70;2.90;;;;;;;1.68;100.00;99555.34;105106;1254;72126;-54
2023/02/02 06:43:30;;;;;;;7.00;3.10;;;;;;;1.70;100.00;99561.32;106171;1256;62438;-54
2023/02/02 06:46:00;;;;;;;9.80;3.10;;;;;;;1.74;100.00;99562.14;105170;1253;60615;-55
2023/02/02 06:48:28;;;;;;;5.60;2.50;;;;;;;1.77;100.00;99563.16;104974;1253;73051;-54
2023/02/02 06:50:58;;;;;;;5.00;2.30;;;;;;;1.80;100.00;99562.92;106705;1256;66748;-57
2023/02/02 06:53:26;;;;;;;4.10;2.20;;;;;;;1.82;100.00;99566.61;105202;1253;71110;-54
2023/02/02 06:55:55;;;;;;;3.70;2.00;;;;;;;1.84;100.00;99563.40;105067;1254;62166;-55
2023/02/02 06:58:23;;;;;;;7.40;2.90;;;;;;;1.86;100.00;99562.66;105019;1252;60460;-54
2023/02/02 07:00:51;;;;;;;7.20;2.70;;;;;;;1.88;100.00;99568.99;105011;1254;75344;-52
2023/02/02 07:03:23;;;;;;;8.60;4.20;;;;;;;1.89;100.00;99571.45;105199;1251;68143;-57
2023/02/02 07:05:51;;;;;;;5.70;3.70;;;;;;;1.90;100.00;99574.98;105306;1253;70746;-54
2023/02/02 07:08:19;;;;;;;9.30;4.60;;;;;;;1.90;100.00;99576.39;104859;1257;60824;-54
2023/02/02 07:10:47;;;;;;;11.20;4.30;;;;;;;1.91;100.00;99581.52;105110;1253;60455;-54
2023/02/02 07:13:36;;;;;;;4.20;2.50;;;;;;;1.94;100.00;99597.94;105120;1256;73520;-54
2023/02/02 07:16:08;;;;;;;6.30;2.20;;;;;;;1.96;100.00;99594.70;105063;1257;68014;-58
2023/02/02 07:18:37;;;;;;;5.40;2.50;;;;;;;1.99;100.00;99590.05;106638;1254;71390;-58
2023/02/02 07:21:05;;;;;;;4.40;2.60;;;;;;;2.01;100.00;99589.15;104949;1253;60577;-55
2023/02/02 07:23:33;;;;;;;4.00;1.70;;;;;;;2.03;100.00;99586.61;109132;1253;61587;-58
2023/02/02 07:26:07;;;;;;;5.50;2.80;;;;;;;2.07;100.00;99590.09;105477;1251;74303;-54
2023/02/02 07:28:35;;;;;;;5.10;2.40;;;;;;;2.10;100.00;99591.29;105668;1255;66736;-56
2023/02/02 07:31:17;;;;;;;10.40;2.40;;;;;;;2.16;100.00;99590.48;105028;1252;72136;-57
2023/02/02 07:33:46;;;;;;;3.00;2.40;;;;;;;2.22;100.00;99603.65;105722;1254;60478;-55
2023/02/02 07:36:15;;;;;;;2.80;1.90;;;;;;;2.30;100.00;99601.91;105017;1253;60437;-56
2023/02/02 07:38:44;;;;;;;5.80;2.60;;;;;;;2.42;100.00;99605.60;105454;1253;73740;-55
2023/02/02 07:41:13;;;;;;;7.50;2.30;;;;;;;2.54;100.00;99614.07;105641;1253;66478;-55
2023/02/02 07:43:41;;;;;;;4.60;2.40;;;;;;;2.66;100.00;99615.61;105198;1254;72764;-57
2023/02/02 07:46:09;;;;;;;3.80;1.90;;;;;;;2.79;100.00;99615.02;105062;1256;60542;-54
2023/02/02 07:48:38;;;;;;;5.60;1.90;;;;;;;2.89;100.00;99624.20;105285;1254;60398;-59
2023/02/02 07:51:08;;;;;;;4.30;1.70;;;;;;;2.99;100.00;99626.15;104928;1254;73232;-59
2023/02/02 07:53:36;;;;;;;5.40;1.70;;;;;;;3.06;100.00;99635.23;105614;1254;67371;-56
2023/02/02 07:56:12;;;;;;;4.30;1.90;;;;;;;3.11;100.00;99642.05;105331;1253;71961;-59
2023/02/02 07:58:40;;;;;;;2.80;1.40;;;;;;;3.12;100.00;99648.05;105014;1257;60459;-57
2023/02/02 08:01:10;;;;;;;3.40;1.70;;;;;;;3.16;100.00;99646.02;105378;1253;60598;-58
2023/02/02 08:05:18;;;;;;;3.40;1.90;;;;;;;3.23;100.00;99676.02;101398;1295;599767;-55
2023/02/02 08:07:47;;;;;;;3.70;2.50;;;;;;;3.26;100.00;99762.31;104415;1270;60769;-56
2023/02/02 08:10:15;;;;;;;4.40;2.70;;;;;;;3.30;100.00;99748.61;105065;1266;61592;-57
2023/02/02 08:12:43;;;;;;;6.00;3.40;;;;;;;3.32;100.00;99742.36;105864;1267;72793;-56
2023/02/02 08:15:12;;;;;;;4.10;2.60;;;;;;;3.33;100.00;99736.46;104235;1267;66255;-56
2023/02/02 08:17:44;;;;;;;3.20;2.10;;;;;;;3.35;100.00;99742.28;103974;1267;73655;-57
2023/02/02 08:20:12;;;;;;;2.50;1.80;;;;;;;3.37;100.00;99742.26;104922;1264;59903;-58
2023/02/02 08:22:40;;;;;;;3.10;1.80;;;;;;;3.38;100.00;99736.56;104771;1258;60354;-56
2023/02/02 08:25:09;;;;;;;3.20;2.20;;;;;;;3.40;100.00;99737.06;105224;1254;71707;-57
2023/02/02 08:27:37;;;;;;;2.00;1.70;;;;;;;3.41;100.00;99736.66;105973;1254;65990;-55
2023/02/02 08:30:09;;;;;;;3.20;1.80;;;;;;;3.42;100.00;99739.30;105148;1258;73314;-56
2023/02/02 08:32:39;;;;;;;4.20;2.70;;;;;;;3.45;100.00;99742.81;104804;1254;60645;-54
2023/02/02 08:35:07;;;;;;;3.00;2.60;;;;;;;3.46;100.00;99742.27;106279;1254;60577;-57
2023/02/02 08:37:36;;;;;;;3.10;2.70;;;;;;;3.45;100.00;99743.52;106316;1254;73209;-55
2023/02/02 08:40:05;;;;;;;5.30;3.10;;;;;;;3.44;100.00;99736.63;105057;1258;67610;-54
2023/02/02 08:42:33;;;;;;;11.80;4.50;;;;;;;3.42;100.00;99734.52;106165;1254;72293;-57
2023/02/02 08:45:02;;;;;;;4.90;3.10;;;;;;;3.42;100.00;99734.15;105235;1257;60146;-57
2023/02/02 08:47:50;;;;;;;5.30;3.10;;;;;;;3.44;100.00;99746.89;104920;1257;59940;-54
2023/02/02 08:50:37;;;;;;;4.80;2.90;;;;;;;3.47;100.00;99748.98;108869;1259;71690;-58
2023/02/02 08:53:05;;;;;;;5.80;3.30;;;;;;;3.47;100.00;99739.05;105238;1257;67453;-55
2023/02/02 08:55:34;;;;;;;4.00;2.60;;;;;;;3.49;100.00;99743.96;105024;1258;72066;-57
2023/02/02 08:58:02;;;;;;;3.10;2.30;;;;;;;3.51;100.00;99747.48;105382;1258;61504;-55
2023/02/02 09:00:31;;;;;;;3.20;2.60;;;;;;;3.53;100.00;99753.29;105239;1258;61457;-56
2023/02/02 09:02:59;;;;;;;4.10;3.00;;;;;;;3.55;100.00;99747.94;105060;1258;73015;-55
2023/02/02 09:05:27;;;;;;;3.00;2.70;;;;;;;3.55;100.00;99747.77;104823;1260;66312;-58
2023/02/02 09:07:56;;;;;;;5.40;3.10;;;;;;;3.53;100.00;99745.84;104791;1258;72696;-56
2023/02/02 09:10:24;;;;;;;4.10;3.10;;;;;;;3.50;100.00;99745.01;105336;1258;60382;-58
2023/02/02 09:12:52;;;;;;;3.20;2.40;;;;;;;3.47;100.00;99740.12;106614;1257;61363;-59
2023/02/02 09:15:22;;;;;;;3.80;2.70;;;;;;;3.45;100.00;99739.79;105531;1258;72402;-55
2023/02/02 09:17:51;;;;;;;5.80;3.00;;;;;;;3.45;100.00;99736.77;108457;1257;66393;-58
2023/02/02 09:20:19;;;;;;;8.80;2.50;;;;;;;3.46;100.00;99738.00;105090;1259;72621;-56
2023/02/02 09:22:48;;;;;;;5.30;3.70;;;;;;;3.47;100.00;99739.41;105216;1258;62401;-57
2023/02/02 09:25:16;;;;;;;4.10;3.60;;;;;;;3.46;100.00;99738.71;104980;1258;60441;-53
2023/02/02 09:27:45;;;;;;;4.10;3.60;;;;;;;3.46;100.00;99734.27;105035;1260;72903;-59
2023/02/02 09:30:13;;;;;;;7.10;3.90;;;;;;;3.48;100.00;99734.96;105137;1260;67688;-55
2023/02/02 09:32:41;;;;;;;4.80;3.70;;;;;;;3.50;100.00;99742.87;105433;1257;72902;-57
2023/02/02 09:35:09;;;;;;;5.60;3.40;;;;;;;3.51;100.00;99741.43;105181;1255;59810;-55
2023/02/02 09:37:39;;;;;;;3.60;3.20;;;;;;;3.50;100.00;99742.17;105013;1257;59643;-56
2023/02/02 09:40:09;;;;;;;4.20;3.60;;;;;;;3.46;100.00;99743.50;104635;1259;71109;-55
2023/02/02 09:42:45;;;;;;;5.10;4.20;;;;;;;3.42;100.00;99740.19;108670;1256;65169;-55
2023/02/02 09:45:22;;;;;;;7.20;4.60;;;;;;;3.40;100.00;99743.45;104526;1264;72970;-57
2023/02/02 09:47:54;;;;;;;8.70;5.00;;;;;;;3.37;100.00;99740.14;105439;1256;59681;-55
2023/02/02 09:50:22;;;;;;;5.00;3.60;;;;;;;3.34;100.00;99737.87;104656;1257;61338;-54
2023/02/02 09:52:55;;;;;;;5.40;4.50;;;;;;;3.31;100.00;99733.50;104968;1259;72458;-57
2023/02/02 09:55:26;;;;;;;5.10;4.00;;;;;;;3.30;100.00;99740.98;104902;1257;64973;-56
2023/02/02 09:57:59;;;;;;;9.20;3.60;;;;;;;3.28;100.00;99738.34;104907;1257;71837;-53
2023/02/02 10:00:32;;;;;;;3.60;2.90;;;;;;;3.27;100.00;99732.33;105883;1259;61898;-56
2023/02/02 10:03:05;;;;;;;4.00;3.10;;;;;;;3.27;100.00;99731.98;108818;1257;60671;-53
2023/02/02 10:06:04;;;;;;;5.70;3.00;;;;;;;3.27;100.00;99730.73;106976;1257;73925;-52
2023/02/02 10:08:38;;;;;;;4.00;2.90;;;;;;;3.29;100.00;99745.08;104791;1256;68172;-54
2023/02/02 10:11:33;;;;;;;3.20;2.10;;;;;;;3.27;100.00;99730.38;104751;1256;72682;-56
2023/02/02 10:14:15;;;;;;;4.50;2.60;;;;;;;3.25;100.00;99734.31;105497;1259;61299;-53
2023/02/02 10:16:43;;;;;;;4.00;2.10;;;;;;;3.22;100.00;99720.04;105419;1257;60953;-55
2023/02/02 10:19:12;;;;;;;6.50;3.60;;;;;;;3.21;100.00;99712.95;104828;1258;72083;-53
2023/02/02 10:21:43;;;;;;;8.10;3.20;;;;;;;3.20;100.00;99711.20;105489;1257;64987;-52
2023/02/02 10:24:46;;;;;;;5.00;2.90;;;;;;;3.20;100.00;99731.05;101955;1290;600462;-54
2023/02/02 10:27:16;;;;;;;4.90;2.50;;;;;;;3.21;100.00;99816.86;104075;1269;60653;-56
2023/02/02 10:30:01;;;;;;;6.30;2.40;;;;;;;3.24;100.00;99811.30;105586;1264;61085;-55
2023/02/02 10:32:34;;;;;;;3.10;1.50;;;;;;;3.28;100.00;99793.33;105509;1263;73221;-57
2023/02/02 10:35:40;;;;;;;2.30;1.40;;;;;;;3.35;100.00;99795.49;103842;1270;67970;-55
2023/02/02 10:38:18;;;;;;;4.00;2.10;;;;;;;3.48;100.00;99807.67;104054;1261;173382;-57
2023/02/02 10:41:21;;;;;;;3.20;1.80;;;;;;;3.59;100.00;99794.88;105386;1266;59256;-53
2023/02/02 10:43:58;;;;;;;2.60;1.70;;;;;;;3.69;100.00;99807.61;104411;1261;61230;-58
2023/02/02 10:46:35;;;;;;;2.70;1.50;;;;;;;3.76;100.00;99796.11;105019;1263;73447;-54
2023/02/02 10:49:25;;;;;;;3.20;1.60;;;;;;;3.81;100.00;99789.45;105052;1263;69420;-54
2023/02/02 10:52:11;;;;;;;2.80;1.30;;;;;;;3.86;100.00;99795.23;104461;1264;73290;-56
2023/02/02 10:55:03;;;;;;;2.20;1.10;;;;;;;3.85;100.00;99794.70;104348;1266;60644;-50
2023/02/02 10:57:47;;;;;;;1.40;1.20;;;;;;;3.87;100.00;99796.08;104312;1266;59554;-55
2023/02/02 11:00:20;;;;;;;1.30;0.90;;;;;;;3.90;100.00;99794.09;104460;1263;73208;-52
2023/02/02 11:02:50;;;;;;;1.40;1.10;;;;;;;3.91;100.00;99791.05;104894;1264;65917;-57
2023/02/02 11:08:27;;;;;;;2.30;1.60;;;;;;;3.96;100.00;99795.72;104483;1264;59711;-56
2023/02/02 11:10:55;;;;;;;2.10;1.00;;;;;;;4.00;100.00;99791.73;105148;1251;61375;-54
2023/02/02 11:13:31;;;;;;;2.20;1.60;;;;;;;4.02;100.00;99780.66;105224;1254;71903;-57
2023/02/02 11:16:14;;;;;;;2.60;1.30;;;;;;;4.03;100.00;99784.72;105384;1258;68024;-54
2023/02/02 11:18:43;;;;;;;1.90;1.20;;;;;;;4.03;100.00;99797.86;105867;1251;73563;-57
2023/02/02 11:21:30;;;;;;;2.30;1.10;;;;;;;4.02;100.00;99784.92;105152;1256;61746;-55
2023/02/02 11:23:59;;;;;;;1.30;1.00;;;;;;;4.03;100.00;99793.44;105018;1251;61218;-53
2023/02/02 11:26:49;;;;;;;2.30;1.20;;;;;;;4.04;100.00;99784.18;105026;1256;72282;-53
2023/02/02 11:29:28;;;;;;;2.20;1.00;;;;;;;4.06;100.00;99799.42;105093;1251;66694;-51
2023/02/02 11:31:56;;;;;;;1.90;1.20;;;;;;;4.07;100.00;99795.14;105112;1257;71259;-54
2023/02/02 11:34:26;;;;;;;3.40;1.20;;;;;;;4.08;100.00;99788.55;104902;1252;59748;-54
2023/02/02 11:36:59;;;;;;;3.10;1.60;;;;;;;4.09;100.00;99788.14;105745;1254;60817;-57
2023/02/02 11:39:27;;;;;;;2.40;1.40;;;;;;;4.10;100.00;99782.09;105996;1254;72970;-53
2023/02/02 11:42:15;;;;;;;2.70;1.20;;;;;;;4.11;100.00;99779.93;105204;1256;68717;-53
2023/02/02 11:44:48;;;;;;;3.40;1.50;;;;;;;4.12;100.00;99798.03;105621;1253;73658;-55
2023/02/02 11:47:23;;;;;;;1.60;1.00;;;;;;;4.11;100.00;99783.14;106000;1254;59618;-53
2023/02/02 11:49:51;;;;;;;2.90;1.70;;;;;;;4.11;100.00;99790.07;107163;1257;61421;-53
2023/02/02 11:52:22;;;;;;;2.10;1.80;;;;;;;4.11;100.00;99785.09;105774;1253;71767;-56
2023/02/02 11:54:52;;;;;;;3.80;1.70;;;;;;;4.11;100.00;99780.29;105339;1254;67711;-54
2023/02/02 11:57:21;;;;;;;2.50;1.70;;;;;;;4.13;100.00;99780.77;105060;1254;72723;-57
2023/02/02 12:00:04;;;;;;;4.70;2.20;;;;;;;4.16;100.00;99782.67;106043;1254;59730;-54